sensor_id;sensor_type;location;lat;lon;timestamp;pressure;altitude;pressure_sealevel;temperature
12061;BMP180;6091;51.432;6.880;2023-02-26T00:01:40;100896.00;;;21.00
12061;BMP180;6091;51.432;6.880;2023-02-26T00:04:08;100892.00;;;21.00
12061;BMP180;6091;51.432;6.880;2023-02-26T00:06:38;100895.00;;;21.00
12061;BMP180;6091;51.432;6.880;2023-02-26T00:09:19;100901.00;;;20.90
12061;BMP180;6091;51.432;6.880;2023-02-26T00:11:46;100905.00;;;20.90
12061;BMP180;6091;51.432;6.880;2023-02-26T00:14:16;100899.00;;;20.90
12061;BMP180;6091;51.432;6.880;2023-02-26T00:16:50;100891.00;;;20.90
12061;BMP180;6091;51.432;6.880;2023-02-26T00:19:19;100900.00;;;20.90
12061;BMP180;6091;51.432;6.880;2023-02-26T00:21:47;100901.00;;;20.90
12061;BMP180;6091;51.432;6.880;2023-02-26T00:24:14;100914.00;;;20.90
12061;BMP180;6091;51.432;6.880;2023-02-26T00:26:41;100914.00;;;20.90
12061;BMP180;6091;51.432;6.880;2023-02-26T00:29:08;100914.00;;;20.90
12061;BMP180;6091;51.432;6.880;2023-02-26T00:31:35;100926.00;;;20.90
12061;BMP180;6091;51.432;6.880;2023-02-26T00:34:03;100922.00;;;20.90
12061;BMP180;6091;51.432;6.880;2023-02-26T00:36:44;100929.00;;;20.90
12061;BMP180;6091;51.432;6.880;2023-02-26T00:42:04;100922.00;;;20.90
12061;BMP180;6091;51.432;6.880;2023-02-26T00:44:31;100922.00;;;20.90
12061;BMP180;6091;51.432;6.880;2023-02-26T00:47:54;100919.00;;;20.80
12061;BMP180;6091;51.432;6.880;2023-02-26T00:50:26;100923.00;;;20.80
12061;BMP180;6091;51.432;6.880;2023-02-26T00:55:38;100945.00;;;20.80
12061;BMP180;6091;51.432;6.880;2023-02-26T00:58:05;100949.00;;;20.80
12061;BMP180;6091;51.432;6.880;2023-02-26T01:00:32;100947.00;;;20.80
12061;BMP180;6091;51.432;6.880;2023-02-26T01:02:59;100949.00;;;20.80
12061;BMP180;6091;51.432;6.880;2023-02-26T01:05:27;100943.00;;;20.80
12061;BMP180;6091;51.432;6.880;2023-02-26T01:08:21;100946.00;;;20.80
12061;BMP180;6091;51.432;6.880;2023-02-26T01:10:50;100943.00;;;20.80
12061;BMP180;6091;51.432;6.880;2023-02-26T01:13:18;100947.00;;;20.80
12061;BMP180;6091;51.432;6.880;2023-02-26T01:15:51;100948.00;;;20.80
12061;BMP180;6091;51.432;6.880;2023-02-26T01:18:29;100948.00;;;20.80
12061;BMP180;6091;51.432;6.880;2023-02-26T01:21:10;100945.00;;;20.80
12061;BMP180;6091;51.432;6.880;2023-02-26T01:23:43;100950.00;;;20.80
12061;BMP180;6091;51.432;6.880;2023-02-26T01:26:25;100954.00;;;20.80
12061;BMP180;6091;51.432;6.880;2023-02-26T01:28:54;100958.00;;;20.80
12061;BMP180;6091;51.432;6.880;2023-02-26T01:32:11;100951.00;;;20.70
12061;BMP180;6091;51.432;6.880;2023-02-26T01:34:53;100958.00;;;20.70
12061;BMP180;6091;51.432;6.880;2023-02-26T01:38:05;100970.00;;;20.70
12061;BMP180;6091;51.432;6.880;2023-02-26T01:43:38;100961.00;;;20.70
12061;BMP180;6091;51.432;6.880;2023-02-26T01:46:36;100964.00;;;20.70
12061;BMP180;6091;51.432;6.880;2023-02-26T01:49:12;100973.00;;;20.70
12061;BMP180;6091;51.432;6.880;2023-02-26T01:51:57;100979.00;;;20.70
12061;BMP180;6091;51.432;6.880;2023-02-26T01:54:30;100981.00;;;20.70
12061;BMP180;6091;51.432;6.880;2023-02-26T01:57:11;100984.00;;;20.70
12061;BMP180;6091;51.432;6.880;2023-02-26T01:59:48;100985.00;;;20.70
12061;BMP180;6091;51.432;6.880;2023-02-26T02:02:22;100985.00;;;20.70
12061;BMP180;6091;51.432;6.880;2023-02-26T02:04:51;100981.00;;;20.70
12061;BMP180;6091;51.432;6.880;2023-02-26T02:07:19;100982.00;;;20.60
12061;BMP180;6091;51.432;6.880;2023-02-26T02:09:46;100980.00;;;20.70
12061;BMP180;6091;51.432;6.880;2023-02-26T02:15:12;100997.00;;;20.60
12061;BMP180;6091;51.432;6.880;2023-02-26T02:24:08;100997.00;;;20.60
12061;BMP180;6091;51.432;6.880;2023-02-26T02:26:55;101010.00;;;20.60
12061;BMP180;6091;51.432;6.880;2023-02-26T02:32:28;101016.00;;;20.60
12061;BMP180;6091;51.432;6.880;2023-02-26T02:35:25;101023.00;;;20.60
12061;BMP180;6091;51.432;6.880;2023-02-26T02:38:15;101014.00;;;20.50
12061;BMP180;6091;51.432;6.880;2023-02-26T02:40:50;101020.00;;;20.60
12061;BMP180;6091;51.432;6.880;2023-02-26T02:43:30;101027.00;;;20.50
12061;BMP180;6091;51.432;6.880;2023-02-26T02:46:02;101031.00;;;20.60
12061;BMP180;6091;51.432;6.880;2023-02-26T02:49:59;101035.00;;;20.50
12061;BMP180;6091;51.432;6.880;2023-02-26T02:52:13;101031.00;;;20.50
12061;BMP180;6091;51.432;6.880;2023-02-26T02:55:12;101042.00;;;20.50
12061;BMP180;6091;51.432;6.880;2023-02-26T02:57:52;101034.00;;;20.50
12061;BMP180;6091;51.432;6.880;2023-02-26T03:00:23;101038.00;;;20.50
12061;BMP180;6091;51.432;6.880;2023-02-26T03:05:21;101028.00;;;20.50
12061;BMP180;6091;51.432;6.880;2023-02-26T03:08:08;101039.00;;;20.50
12061;BMP180;6091;51.432;6.880;2023-02-26T03:10:36;101039.00;;;20.40
12061;BMP180;6091;51.432;6.880;2023-02-26T03:13:05;101042.00;;;20.50
12061;BMP180;6091;51.432;6.880;2023-02-26T03:26:52;101058.00;;;20.40
12061;BMP180;6091;51.432;6.880;2023-02-26T03:29:44;101074.00;;;20.40
12061;BMP180;6091;51.432;6.880;2023-02-26T03:32:23;101067.00;;;20.40
12061;BMP180;6091;51.432;6.880;2023-02-26T03:35:17;101072.00;;;20.40
12061;BMP180;6091;51.432;6.880;2023-02-26T03:37:50;101080.00;;;20.40
12061;BMP180;6091;51.432;6.880;2023-02-26T03:40:45;101084.00;;;20.40
12061;BMP180;6091;51.432;6.880;2023-02-26T03:43:36;101087.00;;;20.30
12061;BMP180;6091;51.432;6.880;2023-02-26T03:46:10;101092.00;;;20.40
12061;BMP180;6091;51.432;6.880;2023-02-26T03:48:38;101090.00;;;20.40
12061;BMP180;6091;51.432;6.880;2023-02-26T03:51:11;101090.00;;;20.30
12061;BMP180;6091;51.432;6.880;2023-02-26T03:56:37;101085.00;;;20.30
12061;BMP180;6091;51.432;6.880;2023-02-26T03:59:06;101092.00;;;20.30
12061;BMP180;6091;51.432;6.880;2023-02-26T04:02:04;101093.00;;;20.30
12061;BMP180;6091;51.432;6.880;2023-02-26T04:05:06;101091.00;;;20.30
12061;BMP180;6091;51.432;6.880;2023-02-26T04:07:34;101099.00;;;20.30
12061;BMP180;6091;51.432;6.880;2023-02-26T04:10:02;101113.00;;;20.30
12061;BMP180;6091;51.432;6.880;2023-02-26T04:12:30;101115.00;;;20.30
12061;BMP180;6091;51.432;6.880;2023-02-26T04:14:58;101125.00;;;20.30
12061;BMP180;6091;51.432;6.880;2023-02-26T04:17:25;101125.00;;;20.30
12061;BMP180;6091;51.432;6.880;2023-02-26T04:19:52;101127.00;;;20.30
12061;BMP180;6091;51.432;6.880;2023-02-26T04:22:19;101132.00;;;20.30
12061;BMP180;6091;51.432;6.880;2023-02-26T04:24:46;101130.00;;;20.30
12061;BMP180;6091;51.432;6.880;2023-02-26T04:27:13;101131.00;;;20.30
12061;BMP180;6091;51.432;6.880;2023-02-26T04:29:40;101140.00;;;20.30
12061;BMP180;6091;51.432;6.880;2023-02-26T04:32:07;101139.00;;;20.30
12061;BMP180;6091;51.432;6.880;2023-02-26T04:34:34;101145.00;;;20.30
12061;BMP180;6091;51.432;6.880;2023-02-26T04:37:01;101140.00;;;20.30
12061;BMP180;6091;51.432;6.880;2023-02-26T04:39:28;101155.00;;;20.30
12061;BMP180;6091;51.432;6.880;2023-02-26T04:41:55;101151.00;;;20.20
12061;BMP180;6091;51.432;6.880;2023-02-26T04:44:22;101161.00;;;20.20
12061;BMP180;6091;51.432;6.880;2023-02-26T04:46:49;101165.00;;;20.20
12061;BMP180;6091;51.432;6.880;2023-02-26T04:49:16;101167.00;;;20.20
12061;BMP180;6091;51.432;6.880;2023-02-26T04:51:43;101173.00;;;20.20
12061;BMP180;6091;51.432;6.880;2023-02-26T04:54:10;101166.00;;;20.20
12061;BMP180;6091;51.432;6.880;2023-02-26T04:56:37;101171.00;;;20.20
12061;BMP180;6091;51.432;6.880;2023-02-26T04:59:04;101172.00;;;20.20
12061;BMP180;6091;51.432;6.880;2023-02-26T05:01:31;101175.00;;;20.20
12061;BMP180;6091;51.432;6.880;2023-02-26T05:03:59;101186.00;;;20.20
12061;BMP180;6091;51.432;6.880;2023-02-26T05:06:26;101182.00;;;20.20
12061;BMP180;6091;51.432;6.880;2023-02-26T05:08:53;101184.00;;;20.20
12061;BMP180;6091;51.432;6.880;2023-02-26T05:11:20;101195.00;;;20.20
12061;BMP180;6091;51.432;6.880;2023-02-26T05:13:48;101190.00;;;20.20
12061;BMP180;6091;51.432;6.880;2023-02-26T05:16:15;101197.00;;;20.20
12061;BMP180;6091;51.432;6.880;2023-02-26T05:18:42;101195.00;;;20.20
12061;BMP180;6091;51.432;6.880;2023-02-26T05:21:09;101201.00;;;20.20
12061;BMP180;6091;51.432;6.880;2023-02-26T05:23:36;101204.00;;;20.10
12061;BMP180;6091;51.432;6.880;2023-02-26T05:26:03;101204.00;;;20.10
12061;BMP180;6091;51.432;6.880;2023-02-26T05:28:30;101206.00;;;20.10
12061;BMP180;6091;51.432;6.880;2023-02-26T05:30:57;101214.00;;;20.10
12061;BMP180;6091;51.432;6.880;2023-02-26T05:33:25;101212.00;;;20.10
12061;BMP180;6091;51.432;6.880;2023-02-26T05:35:52;101203.00;;;20.10
12061;BMP180;6091;51.432;6.880;2023-02-26T05:38:19;101217.00;;;20.10
12061;BMP180;6091;51.432;6.880;2023-02-26T05:40:46;101205.00;;;20.10
12061;BMP180;6091;51.432;6.880;2023-02-26T05:43:13;101220.00;;;20.10
12061;BMP180;6091;51.432;6.880;2023-02-26T05:45:40;101221.00;;;20.10
12061;BMP180;6091;51.432;6.880;2023-02-26T05:48:07;101218.00;;;20.10
12061;BMP180;6091;51.432;6.880;2023-02-26T05:50:36;101225.00;;;20.10
12061;BMP180;6091;51.432;6.880;2023-02-26T05:53:03;101227.00;;;20.10
12061;BMP180;6091;51.432;6.880;2023-02-26T05:55:31;101233.00;;;20.10
12061;BMP180;6091;51.432;6.880;2023-02-26T05:57:58;101236.00;;;20.00
12061;BMP180;6091;51.432;6.880;2023-02-26T06:00:25;101226.00;;;20.00
12061;BMP180;6091;51.432;6.880;2023-02-26T06:02:53;101241.00;;;20.00
12061;BMP180;6091;51.432;6.880;2023-02-26T06:05:20;101250.00;;;20.00
12061;BMP180;6091;51.432;6.880;2023-02-26T06:07:47;101261.00;;;20.00
12061;BMP180;6091;51.432;6.880;2023-02-26T06:10:14;101257.00;;;20.00
12061;BMP180;6091;51.432;6.880;2023-02-26T06:12:41;101265.00;;;20.00
12061;BMP180;6091;51.432;6.880;2023-02-26T06:15:09;101269.00;;;20.00
12061;BMP180;6091;51.432;6.880;2023-02-26T06:17:37;101263.00;;;20.00
12061;BMP180;6091;51.432;6.880;2023-02-26T06:20:07;101274.00;;;20.00
12061;BMP180;6091;51.432;6.880;2023-02-26T06:22:34;101283.00;;;20.00
12061;BMP180;6091;51.432;6.880;2023-02-26T06:25:03;101285.00;;;20.00
12061;BMP180;6091;51.432;6.880;2023-02-26T06:27:30;101288.00;;;20.00
12061;BMP180;6091;51.432;6.880;2023-02-26T06:29:57;101297.00;;;20.00
12061;BMP180;6091;51.432;6.880;2023-02-26T06:32:24;101296.00;;;20.00
12061;BMP180;6091;51.432;6.880;2023-02-26T06:34:55;101306.00;;;20.00
12061;BMP180;6091;51.432;6.880;2023-02-26T06:37:22;101308.00;;;20.00
12061;BMP180;6091;51.432;6.880;2023-02-26T06:39:49;101308.00;;;20.00
12061;BMP180;6091;51.432;6.880;2023-02-26T06:42:16;101313.00;;;20.00
12061;BMP180;6091;51.432;6.880;2023-02-26T06:44:45;101309.00;;;20.00
12061;BMP180;6091;51.432;6.880;2023-02-26T06:47:12;101325.00;;;20.00
12061;BMP180;6091;51.432;6.880;2023-02-26T06:49:40;101324.00;;;19.90
12061;BMP180;6091;51.432;6.880;2023-02-26T06:52:07;101328.00;;;20.00
12061;BMP180;6091;51.432;6.880;2023-02-26T06:54:34;101340.00;;;20.00
12061;BMP180;6091;51.432;6.880;2023-02-26T06:57:01;101340.00;;;19.90
12061;BMP180;6091;51.432;6.880;2023-02-26T06:59:29;101344.00;;;19.90
12061;BMP180;6091;51.432;6.880;2023-02-26T07:01:56;101355.00;;;19.90
12061;BMP180;6091;51.432;6.880;2023-02-26T07:04:24;101356.00;;;19.90
12061;BMP180;6091;51.432;6.880;2023-02-26T07:06:50;101365.00;;;19.90
12061;BMP180;6091;51.432;6.880;2023-02-26T07:09:18;101364.00;;;19.90
12061;BMP180;6091;51.432;6.880;2023-02-26T07:11:48;101360.00;;;19.90
12061;BMP180;6091;51.432;6.880;2023-02-26T07:14:15;101363.00;;;19.90
12061;BMP180;6091;51.432;6.880;2023-02-26T07:16:43;101367.00;;;19.90
12061;BMP180;6091;51.432;6.880;2023-02-26T07:19:10;101375.00;;;19.90
12061;BMP180;6091;51.432;6.880;2023-02-26T07:21:36;101376.00;;;19.90
12061;BMP180;6091;51.432;6.880;2023-02-26T07:24:04;101386.00;;;19.90
12061;BMP180;6091;51.432;6.880;2023-02-26T07:26:31;101384.00;;;19.90
12061;BMP180;6091;51.432;6.880;2023-02-26T07:28:58;101383.00;;;19.90
12061;BMP180;6091;51.432;6.880;2023-02-26T07:31:25;101389.00;;;20.00
12061;BMP180;6091;51.432;6.880;2023-02-26T07:33:52;101388.00;;;20.00
12061;BMP180;6091;51.432;6.880;2023-02-26T07:36:23;101396.00;;;20.00
12061;BMP180;6091;51.432;6.880;2023-02-26T07:38:50;101385.00;;;19.90
12061;BMP180;6091;51.432;6.880;2023-02-26T07:41:17;101396.00;;;20.00
12061;BMP180;6091;51.432;6.880;2023-02-26T07:43:44;101402.00;;;20.00
12061;BMP180;6091;51.432;6.880;2023-02-26T07:46:12;101411.00;;;20.00
12061;BMP180;6091;51.432;6.880;2023-02-26T07:48:39;101412.00;;;20.00
12061;BMP180;6091;51.432;6.880;2023-02-26T07:51:07;101418.00;;;20.00
12061;BMP180;6091;51.432;6.880;2023-02-26T07:53:36;101421.00;;;20.00
12061;BMP180;6091;51.432;6.880;2023-02-26T07:56:03;101426.00;;;20.00
12061;BMP180;6091;51.432;6.880;2023-02-26T07:58:31;101429.00;;;20.00
12061;BMP180;6091;51.432;6.880;2023-02-26T08:00:58;101436.00;;;20.00
12061;BMP180;6091;51.432;6.880;2023-02-26T08:03:26;101437.00;;;20.00
12061;BMP180;6091;51.432;6.880;2023-02-26T08:05:53;101432.00;;;20.00
12061;BMP180;6091;51.432;6.880;2023-02-26T08:08:21;101429.00;;;20.00
12061;BMP180;6091;51.432;6.880;2023-02-26T08:10:48;101433.00;;;20.00
12061;BMP180;6091;51.432;6.880;2023-02-26T08:13:14;101433.00;;;20.00
12061;BMP180;6091;51.432;6.880;2023-02-26T08:15:41;101433.00;;;20.00
12061;BMP180;6091;51.432;6.880;2023-02-26T08:18:11;101441.00;;;20.00
12061;BMP180;6091;51.432;6.880;2023-02-26T08:20:38;101437.00;;;20.00
12061;BMP180;6091;51.432;6.880;2023-02-26T08:23:05;101434.00;;;20.10
12061;BMP180;6091;51.432;6.880;2023-02-26T08:25:32;101437.00;;;20.00
12061;BMP180;6091;51.432;6.880;2023-02-26T08:27:59;101447.00;;;20.00
12061;BMP180;6091;51.432;6.880;2023-02-26T08:30:27;101446.00;;;20.00
12061;BMP180;6091;51.432;6.880;2023-02-26T08:32:54;101452.00;;;20.10
12061;BMP180;6091;51.432;6.880;2023-02-26T08:35:21;101458.00;;;20.10
12061;BMP180;6091;51.432;6.880;2023-02-26T08:37:48;101465.00;;;20.10
12061;BMP180;6091;51.432;6.880;2023-02-26T08:40:16;101466.00;;;20.10
12061;BMP180;6091;51.432;6.880;2023-02-26T08:42:43;101458.00;;;20.10
12061;BMP180;6091;51.432;6.880;2023-02-26T08:45:10;101474.00;;;20.10
12061;BMP180;6091;51.432;6.880;2023-02-26T08:47:38;101467.00;;;20.10
12061;BMP180;6091;51.432;6.880;2023-02-26T08:50:22;101476.00;;;20.10
12061;BMP180;6091;51.432;6.880;2023-02-26T08:52:49;101481.00;;;20.10
12061;BMP180;6091;51.432;6.880;2023-02-26T08:55:16;101475.00;;;20.10
12061;BMP180;6091;51.432;6.880;2023-02-26T08:57:43;101475.00;;;20.10
12061;BMP180;6091;51.432;6.880;2023-02-26T09:00:11;101494.00;;;20.10
12061;BMP180;6091;51.432;6.880;2023-02-26T09:02:38;101497.00;;;20.20
12061;BMP180;6091;51.432;6.880;2023-02-26T09:05:06;101495.00;;;20.20
12061;BMP180;6091;51.432;6.880;2023-02-26T09:07:33;101505.00;;;20.20
12061;BMP180;6091;51.432;6.880;2023-02-26T09:10:00;101513.00;;;20.20
12061;BMP180;6091;51.432;6.880;2023-02-26T09:12:27;101504.00;;;20.60
12061;BMP180;6091;51.432;6.880;2023-02-26T09:14:56;101518.00;;;20.40
12061;BMP180;6091;51.432;6.880;2023-02-26T09:17:25;101513.00;;;20.40
12061;BMP180;6091;51.432;6.880;2023-02-26T09:19:52;101517.00;;;20.40
12061;BMP180;6091;51.432;6.880;2023-02-26T09:22:19;101516.00;;;20.40
12061;BMP180;6091;51.432;6.880;2023-02-26T09:24:46;101520.00;;;20.50
12061;BMP180;6091;51.432;6.880;2023-02-26T09:27:13;101532.00;;;20.60
12061;BMP180;6091;51.432;6.880;2023-02-26T09:29:40;101533.00;;;20.80
12061;BMP180;6091;51.432;6.880;2023-02-26T09:32:07;101531.00;;;20.90
12061;BMP180;6091;51.432;6.880;2023-02-26T09:34:36;101544.00;;;21.10
12061;BMP180;6091;51.432;6.880;2023-02-26T09:37:05;101548.00;;;21.30
12061;BMP180;6091;51.432;6.880;2023-02-26T09:39:34;101559.00;;;21.50
12061;BMP180;6091;51.432;6.880;2023-02-26T09:42:44;101559.00;;;21.70
12061;BMP180;6091;51.432;6.880;2023-02-26T09:45:28;101561.00;;;21.90
12061;BMP180;6091;51.432;6.880;2023-02-26T09:47:57;101559.00;;;22.10
12061;BMP180;6091;51.432;6.880;2023-02-26T09:50:46;101564.00;;;22.40
12061;BMP180;6091;51.432;6.880;2023-02-26T09:53:34;101573.00;;;22.60
12061;BMP180;6091;51.432;6.880;2023-02-26T09:56:12;101570.00;;;22.80
12061;BMP180;6091;51.432;6.880;2023-02-26T09:58:45;101581.00;;;23.00
12061;BMP180;6091;51.432;6.880;2023-02-26T10:01:27;101570.00;;;23.20
12061;BMP180;6091;51.432;6.880;2023-02-26T10:12:14;101601.00;;;23.90
12061;BMP180;6091;51.432;6.880;2023-02-26T10:15:34;101606.00;;;24.00
12061;BMP180;6091;51.432;6.880;2023-02-26T10:20:38;101616.00;;;24.40
12061;BMP180;6091;51.432;6.880;2023-02-26T10:26:23;101613.00;;;24.70
12061;BMP180;6091;51.432;6.880;2023-02-26T10:34:46;101635.00;;;25.10
12061;BMP180;6091;51.432;6.880;2023-02-26T10:43:27;101632.00;;;25.30
12061;BMP180;6091;51.432;6.880;2023-02-26T10:46:29;101646.00;;;25.40
12061;BMP180;6091;51.432;6.880;2023-02-26T10:52:18;101640.00;;;25.90
12061;BMP180;6091;51.432;6.880;2023-02-26T10:57:45;101645.00;;;26.20
12061;BMP180;6091;51.432;6.880;2023-02-26T11:00:19;101647.00;;;26.40
12061;BMP180;6091;51.432;6.880;2023-02-26T11:02:51;101642.00;;;26.50
12061;BMP180;6091;51.432;6.880;2023-02-26T11:05:29;101644.00;;;26.70
12061;BMP180;6091;51.432;6.880;2023-02-26T11:08:10;101642.00;;;26.80
12061;BMP180;6091;51.432;6.880;2023-02-26T11:10:50;101654.00;;;27.00
12061;BMP180;6091;51.432;6.880;2023-02-26T11:13:18;101651.00;;;27.10
12061;BMP180;6091;51.432;6.880;2023-02-26T11:15:52;101655.00;;;27.40
12061;BMP180;6091;51.432;6.880;2023-02-26T11:18:49;101666.00;;;27.50
12061;BMP180;6091;51.432;6.880;2023-02-26T11:21:26;101667.00;;;27.60
12061;BMP180;6091;51.432;6.880;2023-02-26T11:24:01;101662.00;;;27.70
12061;BMP180;6091;51.432;6.880;2023-02-26T11:26:36;101667.00;;;27.80
12061;BMP180;6091;51.432;6.880;2023-02-26T11:29:05;101667.00;;;27.80
12061;BMP180;6091;51.432;6.880;2023-02-26T11:31:32;101673.00;;;27.80
12061;BMP180;6091;51.432;6.880;2023-02-26T11:34:04;101663.00;;;27.90
12061;BMP180;6091;51.432;6.880;2023-02-26T11:36:33;101670.00;;;27.80
12061;BMP180;6091;51.432;6.880;2023-02-26T11:39:24;101678.00;;;27.80
12061;BMP180;6091;51.432;6.880;2023-02-26T11:41:56;101683.00;;;28.30
12061;BMP180;6091;51.432;6.880;2023-02-26T11:44:43;101680.00;;;28.20
12061;BMP180;6091;51.432;6.880;2023-02-26T11:47:14;101680.00;;;28.40
12061;BMP180;6091;51.432;6.880;2023-02-26T11:49:49;101680.00;;;28.60
12061;BMP180;6091;51.432;6.880;2023-02-26T11:52:39;101682.00;;;28.80
12061;BMP180;6091;51.432;6.880;2023-02-26T11:55:32;101686.00;;;28.90
12061;BMP180;6091;51.432;6.880;2023-02-26T11:57:59;101681.00;;;29.00
12061;BMP180;6091;51.432;6.880;2023-02-26T12:00:36;101674.00;;;29.10
12061;BMP180;6091;51.432;6.880;2023-02-26T12:03:15;101677.00;;;29.10
12061;BMP180;6091;51.432;6.880;2023-02-26T12:05:43;101676.00;;;29.10
12061;BMP180;6091;51.432;6.880;2023-02-26T12:08:29;101678.00;;;29.20
12061;BMP180;6091;51.432;6.880;2023-02-26T12:24:28;101673.00;;;30.10
12061;BMP180;6091;51.432;6.880;2023-02-26T12:30:58;101676.00;;;30.40
12061;BMP180;6091;51.432;6.880;2023-02-26T12:45:53;101691.00;;;31.00
12061;BMP180;6091;51.432;6.880;2023-02-26T12:48:39;101688.00;;;31.10
12061;BMP180;6091;51.432;6.880;2023-02-26T12:54:52;101692.00;;;31.10
12061;BMP180;6091;51.432;6.880;2023-02-26T12:57:49;101687.00;;;31.00
12061;BMP180;6091;51.432;6.880;2023-02-26T13:00:49;101692.00;;;31.00
12061;BMP180;6091;51.432;6.880;2023-02-26T13:03:46;101695.00;;;31.00
12061;BMP180;6091;51.432;6.880;2023-02-26T13:13:13;101687.00;;;31.10
12061;BMP180;6091;51.432;6.880;2023-02-26T13:22:07;101687.00;;;31.30
12061;BMP180;6091;51.432;6.880;2023-02-26T13:24:51;101682.00;;;31.40
12061;BMP180;6091;51.432;6.880;2023-02-26T13:27:25;101692.00;;;31.40
12061;BMP180;6091;51.432;6.880;2023-02-26T13:32:43;101697.00;;;31.40
12061;BMP180;6091;51.432;6.880;2023-02-26T13:35:34;101694.00;;;31.40
12061;BMP180;6091;51.432;6.880;2023-02-26T13:38:34;101697.00;;;31.30
12061;BMP180;6091;51.432;6.880;2023-02-26T13:44:36;101693.00;;;31.00
12061;BMP180;6091;51.432;6.880;2023-02-26T13:56:05;101684.00;;;30.30
12061;BMP180;6091;51.432;6.880;2023-02-26T13:58:39;101691.00;;;30.20
12061;BMP180;6091;51.432;6.880;2023-02-26T14:01:34;101685.00;;;30.10
12061;BMP180;6091;51.432;6.880;2023-02-26T14:10:55;101655.00;;;29.70
12061;BMP180;6091;51.432;6.880;2023-02-26T14:13:38;101667.00;;;29.60
12061;BMP180;6091;51.432;6.880;2023-02-26T14:16:12;101666.00;;;29.50
12061;BMP180;6091;51.432;6.880;2023-02-26T14:18:48;101665.00;;;29.40
12061;BMP180;6091;51.432;6.880;2023-02-26T14:21:37;101670.00;;;29.30
12061;BMP180;6091;51.432;6.880;2023-02-26T14:25:31;101678.00;;;29.10
12061;BMP180;6091;51.432;6.880;2023-02-26T14:27:35;101664.00;;;29.00
12061;BMP180;6091;51.432;6.880;2023-02-26T14:35:39;101682.00;;;28.80
12061;BMP180;6091;51.432;6.880;2023-02-26T14:40:59;101682.00;;;28.70
12061;BMP180;6091;51.432;6.880;2023-02-26T14:43:42;101678.00;;;28.70
12061;BMP180;6091;51.432;6.880;2023-02-26T14:46:11;101680.00;;;28.60
12061;BMP180;6091;51.432;6.880;2023-02-26T14:48:39;101679.00;;;28.60
12061;BMP180;6091;51.432;6.880;2023-02-26T14:54:33;101678.00;;;28.60
12061;BMP180;6091;51.432;6.880;2023-02-26T14:57:25;101665.00;;;28.50
12061;BMP180;6091;51.432;6.880;2023-02-26T15:12:04;101693.00;;;28.30
12061;BMP180;6091;51.432;6.880;2023-02-26T15:23:39;101687.00;;;28.20
12061;BMP180;6091;51.432;6.880;2023-02-26T15:26:15;101680.00;;;28.20
12061;BMP180;6091;51.432;6.880;2023-02-26T15:28:44;101682.00;;;28.20
12061;BMP180;6091;51.432;6.880;2023-02-26T15:31:12;101679.00;;;28.20
12061;BMP180;6091;51.432;6.880;2023-02-26T15:33:40;101687.00;;;28.10
12061;BMP180;6091;51.432;6.880;2023-02-26T15:36:16;101690.00;;;28.10
12061;BMP180;6091;51.432;6.880;2023-02-26T15:38:57;101688.00;;;28.10
12061;BMP180;6091;51.432;6.880;2023-02-26T15:41:27;101698.00;;;28.00
12061;BMP180;6091;51.432;6.880;2023-02-26T15:44:04;101704.00;;;28.00
12061;BMP180;6091;51.432;6.880;2023-02-26T15:46:40;101701.00;;;28.00
12061;BMP180;6091;51.432;6.880;2023-02-26T15:49:27;101700.00;;;28.00
12061;BMP180;6091;51.432;6.880;2023-02-26T15:51:58;101701.00;;;28.00
12061;BMP180;6091;51.432;6.880;2023-02-26T15:54:36;101709.00;;;28.10
12061;BMP180;6091;51.432;6.880;2023-02-26T15:57:05;101697.00;;;28.10
12061;BMP180;6091;51.432;6.880;2023-02-26T15:59:32;101706.00;;;28.10
12061;BMP180;6091;51.432;6.880;2023-02-26T16:02:02;101709.00;;;28.20
12061;BMP180;6091;51.432;6.880;2023-02-26T16:04:29;101712.00;;;28.20
12061;BMP180;6091;51.432;6.880;2023-02-26T16:06:57;101716.00;;;28.30
12061;BMP180;6091;51.432;6.880;2023-02-26T16:09:32;101717.00;;;28.30
12061;BMP180;6091;51.432;6.880;2023-02-26T16:12:08;101722.00;;;28.30
12061;BMP180;6091;51.432;6.880;2023-02-26T16:14:42;101716.00;;;28.30
12061;BMP180;6091;51.432;6.880;2023-02-26T16:17:23;101717.00;;;28.30
12061;BMP180;6091;51.432;6.880;2023-02-26T16:19:55;101727.00;;;28.30
12061;BMP180;6091;51.432;6.880;2023-02-26T16:23:03;101719.00;;;28.20
12061;BMP180;6091;51.432;6.880;2023-02-26T16:28:04;101729.00;;;28.20
12061;BMP180;6091;51.432;6.880;2023-02-26T16:30:37;101734.00;;;28.20
12061;BMP180;6091;51.432;6.880;2023-02-26T16:33:13;101734.00;;;28.10
12061;BMP180;6091;51.432;6.880;2023-02-26T16:35:55;101734.00;;;28.10
12061;BMP180;6091;51.432;6.880;2023-02-26T16:38:59;101737.00;;;28.10
12061;BMP180;6091;51.432;6.880;2023-02-26T16:41:34;101740.00;;;28.00
12061;BMP180;6091;51.432;6.880;2023-02-26T16:46:58;101748.00;;;27.90
12061;BMP180;6091;51.432;6.880;2023-02-26T16:49:32;101746.00;;;27.90
12061;BMP180;6091;51.432;6.880;2023-02-26T16:52:02;101753.00;;;27.90
12061;BMP180;6091;51.432;6.880;2023-02-26T16:54:37;101757.00;;;27.90
12061;BMP180;6091;51.432;6.880;2023-02-26T16:57:30;101754.00;;;27.80
12061;BMP180;6091;51.432;6.880;2023-02-26T17:00:05;101759.00;;;27.80
12061;BMP180;6091;51.432;6.880;2023-02-26T17:02:38;101761.00;;;27.70
12061;BMP180;6091;51.432;6.880;2023-02-26T17:05:29;101763.00;;;27.60
12061;BMP180;6091;51.432;6.880;2023-02-26T17:08:17;101758.00;;;27.60
12061;BMP180;6091;51.432;6.880;2023-02-26T17:10:53;101759.00;;;27.50
12061;BMP180;6091;51.432;6.880;2023-02-26T17:13:28;101765.00;;;27.50
12061;BMP180;6091;51.432;6.880;2023-02-26T17:16:00;101765.00;;;27.40
12061;BMP180;6091;51.432;6.880;2023-02-26T17:18:29;101768.00;;;27.40
12061;BMP180;6091;51.432;6.880;2023-02-26T17:20:59;101770.00;;;27.40
12061;BMP180;6091;51.432;6.880;2023-02-26T17:23:35;101774.00;;;27.30
12061;BMP180;6091;51.432;6.880;2023-02-26T17:26:05;101776.00;;;27.20
12061;BMP180;6091;51.432;6.880;2023-02-26T17:28:39;101776.00;;;27.20
12061;BMP180;6091;51.432;6.880;2023-02-26T17:31:08;101780.00;;;27.10
12061;BMP180;6091;51.432;6.880;2023-02-26T17:33:40;101780.00;;;27.10
12061;BMP180;6091;51.432;6.880;2023-02-26T17:36:15;101784.00;;;27.00
12061;BMP180;6091;51.432;6.880;2023-02-26T17:38:42;101778.00;;;27.00
12061;BMP180;6091;51.432;6.880;2023-02-26T17:41:17;101788.00;;;26.90
12061;BMP180;6091;51.432;6.880;2023-02-26T17:43:44;101784.00;;;26.80